sensor_id;sensor_type;location;lat;lon;timestamp;P1;durP1;ratioP1;P2;durP2;ratioP2
79204;SDS011;68632;47.512;19.104;2024-02-15T00:00:06;27.70;;;15.70;;
79204;SDS011;68632;47.512;19.104;2024-02-15T00:01:10;31.30;;;19.30;;
79204;SDS011;68632;47.512;19.104;2024-02-15T00:02:12;27.55;;;18.13;;
79204;SDS011;68632;47.512;19.104;2024-02-15T00:03:14;26.85;;;19.50;;
79204;SDS011;68632;47.512;19.104;2024-02-15T00:04:36;27.63;;;19.38;;
79204;SDS011;68632;47.512;19.104;2024-02-15T00:05:38;26.67;;;16.88;;
79204;SDS011;68632;47.512;19.104;2024-02-15T00:06:40;36.55;;;19.42;;
79204;SDS011;68632;47.512;19.104;2024-02-15T00:07:43;32.95;;;21.27;;
79204;SDS011;68632;47.512;19.104;2024-02-15T00:08:46;33.85;;;19.55;;
79204;SDS011;68632;47.512;19.104;2024-02-15T00:09:48;34.05;;;20.23;;
79204;SDS011;68632;47.512;19.104;2024-02-15T00:10:51;33.13;;;21.58;;
79204;SDS011;68632;47.512;19.104;2024-02-15T00:11:53;37.22;;;19.83;;
79204;SDS011;68632;47.512;19.104;2024-02-15T00:12:55;38.05;;;20.10;;
79204;SDS011;68632;47.512;19.104;2024-02-15T00:13:58;37.88;;;19.65;;
79204;SDS011;68632;47.512;19.104;2024-02-15T00:15:00;35.92;;;21.25;;
79204;SDS011;68632;47.512;19.104;2024-02-15T00:16:03;33.53;;;18.83;;
79204;SDS011;68632;47.512;19.104;2024-02-15T00:17:05;34.47;;;21.20;;
79204;SDS011;68632;47.512;19.104;2024-02-15T00:18:08;39.70;;;21.48;;
79204;SDS011;68632;47.512;19.104;2024-02-15T00:19:10;34.55;;;20.92;;
79204;SDS011;68632;47.512;19.104;2024-02-15T00:20:13;35.22;;;20.13;;
79204;SDS011;68632;47.512;19.104;2024-02-15T00:21:15;32.92;;;20.75;;
79204;SDS011;68632;47.512;19.104;2024-02-15T00:22:17;37.58;;;20.33;;
79204;SDS011;68632;47.512;19.104;2024-02-15T00:23:21;34.60;;;20.30;;
79204;SDS011;68632;47.512;19.104;2024-02-15T00:24:23;30.95;;;19.17;;
79204;SDS011;68632;47.512;19.104;2024-02-15T00:25:28;31.88;;;20.42;;
79204;SDS011;68632;47.512;19.104;2024-02-15T00:26:30;33.13;;;19.90;;
79204;SDS011;68632;47.512;19.104;2024-02-15T00:27:34;36.58;;;20.02;;
79204;SDS011;68632;47.512;19.104;2024-02-15T00:28:37;37.92;;;20.98;;
79204;SDS011;68632;47.512;19.104;2024-02-15T00:29:39;31.20;;;20.02;;
79204;SDS011;68632;47.512;19.104;2024-02-15T00:30:42;29.05;;;19.27;;
79204;SDS011;68632;47.512;19.104;2024-02-15T00:31:45;31.65;;;20.60;;
79204;SDS011;68632;47.512;19.104;2024-02-15T00:32:47;34.08;;;20.77;;
79204;SDS011;68632;47.512;19.104;2024-02-15T00:33:50;32.55;;;20.40;;
79204;SDS011;68632;47.512;19.104;2024-02-15T00:34:53;33.03;;;19.98;;
79204;SDS011;68632;47.512;19.104;2024-02-15T00:35:56;32.50;;;18.13;;
79204;SDS011;68632;47.512;19.104;2024-02-15T00:36:59;34.97;;;22.08;;
79204;SDS011;68632;47.512;19.104;2024-02-15T00:38:01;31.35;;;19.85;;
79204;SDS011;68632;47.512;19.104;2024-02-15T00:39:04;32.20;;;20.77;;
79204;SDS011;68632;47.512;19.104;2024-02-15T00:40:08;30.85;;;19.80;;
79204;SDS011;68632;47.512;19.104;2024-02-15T00:41:11;27.45;;;18.77;;
79204;SDS011;68632;47.512;19.104;2024-02-15T00:42:13;30.55;;;20.17;;
79204;SDS011;68632;47.512;19.104;2024-02-15T00:43:17;41.15;;;22.52;;
79204;SDS011;68632;47.512;19.104;2024-02-15T00:44:20;29.23;;;20.08;;
79204;SDS011;68632;47.512;19.104;2024-02-15T00:45:22;34.00;;;19.77;;
79204;SDS011;68632;47.512;19.104;2024-02-15T00:46:24;30.60;;;19.83;;
79204;SDS011;68632;47.512;19.104;2024-02-15T00:47:29;32.08;;;21.13;;
79204;SDS011;68632;47.512;19.104;2024-02-15T00:48:31;33.40;;;19.65;;
79204;SDS011;68632;47.512;19.104;2024-02-15T00:49:35;35.90;;;21.83;;
79204;SDS011;68632;47.512;19.104;2024-02-15T00:50:38;30.95;;;19.42;;
79204;SDS011;68632;47.512;19.104;2024-02-15T00:51:40;36.53;;;21.75;;
79204;SDS011;68632;47.512;19.104;2024-02-15T00:52:43;39.78;;;23.08;;
79204;SDS011;68632;47.512;19.104;2024-02-15T00:53:45;36.13;;;22.33;;
79204;SDS011;68632;47.512;19.104;2024-02-15T00:54:47;33.83;;;21.92;;
79204;SDS011;68632;47.512;19.104;2024-02-15T00:55:51;32.20;;;21.80;;
79204;SDS011;68632;47.512;19.104;2024-02-15T00:56:53;37.50;;;21.60;;
79204;SDS011;68632;47.512;19.104;2024-02-15T00:57:55;37.00;;;22.60;;
79204;SDS011;68632;47.512;19.104;2024-02-15T00:59:01;33.50;;;23.45;;
79204;SDS011;68632;47.512;19.104;2024-02-15T01:00:04;32.90;;;22.17;;
79204;SDS011;68632;47.512;19.104;2024-02-15T01:01:08;39.75;;;24.02;;
79204;SDS011;68632;47.512;19.104;2024-02-15T01:02:10;37.17;;;24.38;;
79204;SDS011;68632;47.512;19.104;2024-02-15T01:03:15;37.17;;;21.83;;
79204;SDS011;68632;47.512;19.104;2024-02-15T01:04:17;40.63;;;23.98;;
79204;SDS011;68632;47.512;19.104;2024-02-15T01:05:19;34.67;;;22.88;;
79204;SDS011;68632;47.512;19.104;2024-02-15T01:06:22;41.25;;;23.35;;
79204;SDS011;68632;47.512;19.104;2024-02-15T01:07:24;37.97;;;21.65;;
79204;SDS011;68632;47.512;19.104;2024-02-15T01:08:30;37.30;;;22.67;;
79204;SDS011;68632;47.512;19.104;2024-02-15T01:09:32;34.55;;;23.33;;
79204;SDS011;68632;47.512;19.104;2024-02-15T01:10:34;36.40;;;23.35;;
79204;SDS011;68632;47.512;19.104;2024-02-15T01:11:38;36.40;;;22.52;;
79204;SDS011;68632;47.512;19.104;2024-02-15T01:12:41;39.85;;;23.08;;
79204;SDS011;68632;47.512;19.104;2024-02-15T01:13:43;39.33;;;24.40;;
79204;SDS011;68632;47.512;19.104;2024-02-15T01:14:46;40.13;;;23.90;;
79204;SDS011;68632;47.512;19.104;2024-02-15T01:15:49;38.70;;;22.05;;
79204;SDS011;68632;47.512;19.104;2024-02-15T01:16:52;37.85;;;23.60;;
79204;SDS011;68632;47.512;19.104;2024-02-15T01:17:54;42.35;;;23.58;;
79204;SDS011;68632;47.512;19.104;2024-02-15T01:18:57;37.38;;;24.55;;
79204;SDS011;68632;47.512;19.104;2024-02-15T01:19:59;42.17;;;23.77;;
79204;SDS011;68632;47.512;19.104;2024-02-15T01:21:01;34.58;;;23.05;;
79204;SDS011;68632;47.512;19.104;2024-02-15T01:22:04;44.90;;;23.95;;
79204;SDS011;68632;47.512;19.104;2024-02-15T01:23:08;36.35;;;23.23;;
79204;SDS011;68632;47.512;19.104;2024-02-15T01:24:10;41.58;;;24.83;;
79204;SDS011;68632;47.512;19.104;2024-02-15T01:25:13;35.90;;;23.27;;
79204;SDS011;68632;47.512;19.104;2024-02-15T01:26:17;36.63;;;22.95;;
79204;SDS011;68632;47.512;19.104;2024-02-15T01:27:20;35.97;;;23.23;;
79204;SDS011;68632;47.512;19.104;2024-02-15T01:28:23;37.33;;;23.90;;
79204;SDS011;68632;47.512;19.104;2024-02-15T01:29:25;39.78;;;23.77;;
79204;SDS011;68632;47.512;19.104;2024-02-15T01:30:27;35.65;;;25.02;;
79204;SDS011;68632;47.512;19.104;2024-02-15T01:31:33;43.15;;;25.20;;
79204;SDS011;68632;47.512;19.104;2024-02-15T01:32:36;36.78;;;24.52;;
79204;SDS011;68632;47.512;19.104;2024-02-15T01:33:38;38.40;;;25.90;;
79204;SDS011;68632;47.512;19.104;2024-02-15T01:34:41;40.67;;;22.88;;
79204;SDS011;68632;47.512;19.104;2024-02-15T01:35:44;41.40;;;25.27;;
79204;SDS011;68632;47.512;19.104;2024-02-15T01:36:49;36.50;;;22.42;;
79204;SDS011;68632;47.512;19.104;2024-02-15T01:37:52;41.13;;;26.23;;
79204;SDS011;68632;47.512;19.104;2024-02-15T01:38:54;42.10;;;26.33;;
79204;SDS011;68632;47.512;19.104;2024-02-15T01:39:56;37.80;;;24.85;;
79204;SDS011;68632;47.512;19.104;2024-02-15T01:40:59;42.65;;;26.33;;
79204;SDS011;68632;47.512;19.104;2024-02-15T01:42:01;42.70;;;25.85;;
79204;SDS011;68632;47.512;19.104;2024-02-15T01:43:05;39.78;;;26.55;;
79204;SDS011;68632;47.512;19.104;2024-02-15T01:44:07;43.15;;;26.33;;
79204;SDS011;68632;47.512;19.104;2024-02-15T01:45:09;43.05;;;26.67;;
79204;SDS011;68632;47.512;19.104;2024-02-15T01:46:14;40.22;;;25.58;;
79204;SDS011;68632;47.512;19.104;2024-02-15T01:47:17;40.50;;;24.98;;
79204;SDS011;68632;47.512;19.104;2024-02-15T01:48:21;44.25;;;27.15;;
79204;SDS011;68632;47.512;19.104;2024-02-15T01:49:24;44.45;;;26.30;;
79204;SDS011;68632;47.512;19.104;2024-02-15T01:50:27;43.28;;;26.20;;
79204;SDS011;68632;47.512;19.104;2024-02-15T01:51:30;45.10;;;26.13;;
79204;SDS011;68632;47.512;19.104;2024-02-15T01:52:33;42.83;;;25.48;;
79204;SDS011;68632;47.512;19.104;2024-02-15T01:53:36;39.25;;;24.38;;
79204;SDS011;68632;47.512;19.104;2024-02-15T01:54:39;42.75;;;26.08;;
79204;SDS011;68632;47.512;19.104;2024-02-15T01:55:42;40.65;;;25.30;;
79204;SDS011;68632;47.512;19.104;2024-02-15T01:56:45;41.75;;;27.05;;
79204;SDS011;68632;47.512;19.104;2024-02-15T01:57:47;41.95;;;26.15;;
79204;SDS011;68632;47.512;19.104;2024-02-15T01:58:50;40.55;;;26.25;;
79204;SDS011;68632;47.512;19.104;2024-02-15T01:59:53;45.55;;;26.02;;
79204;SDS011;68632;47.512;19.104;2024-02-15T02:00:55;42.75;;;26.65;;
79204;SDS011;68632;47.512;19.104;2024-02-15T02:01:58;40.40;;;24.02;;
79204;SDS011;68632;47.512;19.104;2024-02-15T02:03:00;40.45;;;24.85;;
79204;SDS011;68632;47.512;19.104;2024-02-15T02:04:05;35.47;;;24.73;;
79204;SDS011;68632;47.512;19.104;2024-02-15T02:05:07;43.15;;;26.00;;
79204;SDS011;68632;47.512;19.104;2024-02-15T02:06:10;40.30;;;25.15;;
79204;SDS011;68632;47.512;19.104;2024-02-15T02:07:12;41.15;;;26.05;;
79204;SDS011;68632;47.512;19.104;2024-02-15T02:08:16;39.03;;;26.02;;
79204;SDS011;68632;47.512;19.104;2024-02-15T02:09:18;41.03;;;24.90;;
79204;SDS011;68632;47.512;19.104;2024-02-15T02:10:21;36.85;;;23.90;;
79204;SDS011;68632;47.512;19.104;2024-02-15T02:11:23;42.58;;;25.40;;
79204;SDS011;68632;47.512;19.104;2024-02-15T02:12:26;40.80;;;25.65;;
79204;SDS011;68632;47.512;19.104;2024-02-15T02:13:31;46.55;;;26.25;;
79204;SDS011;68632;47.512;19.104;2024-02-15T02:14:33;43.40;;;25.13;;
79204;SDS011;68632;47.512;19.104;2024-02-15T02:15:35;44.35;;;26.45;;
79204;SDS011;68632;47.512;19.104;2024-02-15T02:16:39;41.38;;;26.52;;
79204;SDS011;68632;47.512;19.104;2024-02-15T02:17:41;41.15;;;25.85;;
79204;SDS011;68632;47.512;19.104;2024-02-15T02:18:43;44.75;;;25.85;;
79204;SDS011;68632;47.512;19.104;2024-02-15T02:19:46;44.00;;;25.85;;
79204;SDS011;68632;47.512;19.104;2024-02-15T02:20:52;46.92;;;25.38;;
79204;SDS011;68632;47.512;19.104;2024-02-15T02:21:56;40.15;;;26.13;;
79204;SDS011;68632;47.512;19.104;2024-02-15T02:23:01;45.22;;;23.77;;
79204;SDS011;68632;47.512;19.104;2024-02-15T02:24:13;43.42;;;26.20;;
79204;SDS011;68632;47.512;19.104;2024-02-15T02:25:16;43.38;;;24.85;;
79204;SDS011;68632;47.512;19.104;2024-02-15T02:26:20;39.38;;;24.45;;
79204;SDS011;68632;47.512;19.104;2024-02-15T02:27:25;40.40;;;25.30;;
79204;SDS011;68632;47.512;19.104;2024-02-15T02:28:29;41.25;;;25.05;;
79204;SDS011;68632;47.512;19.104;2024-02-15T02:29:31;42.00;;;25.58;;
79204;SDS011;68632;47.512;19.104;2024-02-15T02:30:34;37.13;;;25.17;;
79204;SDS011;68632;47.512;19.104;2024-02-15T02:31:36;42.60;;;26.63;;
79204;SDS011;68632;47.512;19.104;2024-02-15T02:32:39;45.33;;;25.17;;
79204;SDS011;68632;47.512;19.104;2024-02-15T02:33:41;45.08;;;26.17;;
79204;SDS011;68632;47.512;19.104;2024-02-15T02:34:44;42.53;;;26.08;;
79204;SDS011;68632;47.512;19.104;2024-02-15T02:35:46;47.97;;;25.65;;
79204;SDS011;68632;47.512;19.104;2024-02-15T02:36:50;41.45;;;26.38;;
79204;SDS011;68632;47.512;19.104;2024-02-15T02:37:53;45.28;;;25.25;;
79204;SDS011;68632;47.512;19.104;2024-02-15T02:38:55;43.25;;;27.42;;
79204;SDS011;68632;47.512;19.104;2024-02-15T02:40:06;41.20;;;26.33;;
79204;SDS011;68632;47.512;19.104;2024-02-15T02:41:11;38.22;;;25.25;;
79204;SDS011;68632;47.512;19.104;2024-02-15T02:42:14;42.83;;;26.10;;
79204;SDS011;68632;47.512;19.104;2024-02-15T02:43:16;42.90;;;25.85;;
79204;SDS011;68632;47.512;19.104;2024-02-15T02:44:18;43.00;;;26.63;;
79204;SDS011;68632;47.512;19.104;2024-02-15T02:45:21;42.63;;;24.95;;
79204;SDS011;68632;47.512;19.104;2024-02-15T02:46:25;38.88;;;25.05;;
79204;SDS011;68632;47.512;19.104;2024-02-15T02:47:27;40.10;;;26.95;;
79204;SDS011;68632;47.512;19.104;2024-02-15T02:48:29;40.53;;;24.42;;
79204;SDS011;68632;47.512;19.104;2024-02-15T02:49:32;35.85;;;24.20;;
79204;SDS011;68632;47.512;19.104;2024-02-15T02:50:37;37.47;;;24.52;;
79204;SDS011;68632;47.512;19.104;2024-02-15T02:51:39;43.00;;;25.83;;
79204;SDS011;68632;47.512;19.104;2024-02-15T02:52:41;41.60;;;26.63;;
79204;SDS011;68632;47.512;19.104;2024-02-15T02:53:43;44.03;;;26.33;;
79204;SDS011;68632;47.512;19.104;2024-02-15T02:54:46;43.50;;;25.42;;
79204;SDS011;68632;47.512;19.104;2024-02-15T02:55:48;41.83;;;24.50;;
79204;SDS011;68632;47.512;19.104;2024-02-15T02:56:50;39.22;;;26.85;;
79204;SDS011;68632;47.512;19.104;2024-02-15T02:57:52;39.90;;;25.75;;
79204;SDS011;68632;47.512;19.104;2024-02-15T02:58:57;43.22;;;28.27;;
79204;SDS011;68632;47.512;19.104;2024-02-15T02:59:59;38.85;;;26.15;;
79204;SDS011;68632;47.512;19.104;2024-02-15T03:01:01;39.33;;;26.73;;
79204;SDS011;68632;47.512;19.104;2024-02-15T03:02:03;42.38;;;24.90;;
79204;SDS011;68632;47.512;19.104;2024-02-15T03:03:06;46.45;;;28.38;;
79204;SDS011;68632;47.512;19.104;2024-02-15T03:04:08;45.53;;;27.10;;
79204;SDS011;68632;47.512;19.104;2024-02-15T03:05:10;46.97;;;27.70;;
79204;SDS011;68632;47.512;19.104;2024-02-15T03:06:13;43.67;;;26.90;;
79204;SDS011;68632;47.512;19.104;2024-02-15T03:07:16;42.13;;;25.30;;
79204;SDS011;68632;47.512;19.104;2024-02-15T03:08:20;39.67;;;27.25;;
79204;SDS011;68632;47.512;19.104;2024-02-15T03:09:24;38.92;;;25.17;;
79204;SDS011;68632;47.512;19.104;2024-02-15T03:10:31;37.85;;;23.40;;
79204;SDS011;68632;47.512;19.104;2024-02-15T03:11:33;40.10;;;23.98;;
79204;SDS011;68632;47.512;19.104;2024-02-15T03:12:37;41.10;;;24.95;;
79204;SDS011;68632;47.512;19.104;2024-02-15T03:13:40;41.17;;;26.25;;
79204;SDS011;68632;47.512;19.104;2024-02-15T03:14:42;43.58;;;24.98;;
79204;SDS011;68632;47.512;19.104;2024-02-15T03:15:47;39.17;;;22.52;;
79204;SDS011;68632;47.512;19.104;2024-02-15T03:16:49;36.30;;;23.98;;
79204;SDS011;68632;47.512;19.104;2024-02-15T03:17:52;42.55;;;24.67;;
79204;SDS011;68632;47.512;19.104;2024-02-15T03:18:54;41.92;;;24.25;;
79204;SDS011;68632;47.512;19.104;2024-02-15T03:19:57;39.17;;;25.83;;
79204;SDS011;68632;47.512;19.104;2024-02-15T03:21:00;40.53;;;25.70;;
79204;SDS011;68632;47.512;19.104;2024-02-15T03:22:02;38.75;;;25.25;;
79204;SDS011;68632;47.512;19.104;2024-02-15T03:23:05;42.95;;;24.50;;
79204;SDS011;68632;47.512;19.104;2024-02-15T03:24:07;38.10;;;22.67;;
79204;SDS011;68632;47.512;19.104;2024-02-15T03:25:09;43.63;;;25.05;;
79204;SDS011;68632;47.512;19.104;2024-02-15T03:26:12;37.22;;;23.20;;
79204;SDS011;68632;47.512;19.104;2024-02-15T03:27:14;36.42;;;22.92;;
79204;SDS011;68632;47.512;19.104;2024-02-15T03:28:17;40.78;;;24.10;;
79204;SDS011;68632;47.512;19.104;2024-02-15T03:29:19;35.80;;;24.17;;
79204;SDS011;68632;47.512;19.104;2024-02-15T03:30:22;38.38;;;24.33;;
79204;SDS011;68632;47.512;19.104;2024-02-15T03:31:29;44.13;;;27.52;;
79204;SDS011;68632;47.512;19.104;2024-02-15T03:32:32;39.78;;;25.00;;
79204;SDS011;68632;47.512;19.104;2024-02-15T03:33:35;42.38;;;24.60;;
79204;SDS011;68632;47.512;19.104;2024-02-15T03:34:37;42.42;;;26.10;;
79204;SDS011;68632;47.512;19.104;2024-02-15T03:35:41;33.70;;;22.58;;
79204;SDS011;68632;47.512;19.104;2024-02-15T03:36:43;41.30;;;25.25;;
79204;SDS011;68632;47.512;19.104;2024-02-15T03:37:46;37.72;;;26.60;;
79204;SDS011;68632;47.512;19.104;2024-02-15T03:38:48;41.38;;;25.48;;
79204;SDS011;68632;47.512;19.104;2024-02-15T03:39:50;38.47;;;23.40;;
79204;SDS011;68632;47.512;19.104;2024-02-15T03:40:53;39.65;;;24.33;;
79204;SDS011;68632;47.512;19.104;2024-02-15T03:41:56;48.63;;;26.38;;
79204;SDS011;68632;47.512;19.104;2024-02-15T03:43:00;41.38;;;25.08;;
79204;SDS011;68632;47.512;19.104;2024-02-15T03:44:03;44.20;;;24.98;;
79204;SDS011;68632;47.512;19.104;2024-02-15T03:45:06;34.85;;;22.58;;
79204;SDS011;68632;47.512;19.104;2024-02-15T03:46:09;38.33;;;24.77;;
79204;SDS011;68632;47.512;19.104;2024-02-15T03:47:14;39.22;;;25.02;;
79204;SDS011;68632;47.512;19.104;2024-02-15T03:48:17;35.05;;;24.00;;
79204;SDS011;68632;47.512;19.104;2024-02-15T03:49:19;35.63;;;24.20;;
79204;SDS011;68632;47.512;19.104;2024-02-15T03:50:22;37.63;;;24.40;;
79204;SDS011;68632;47.512;19.104;2024-02-15T03:51:25;34.97;;;22.05;;
79204;SDS011;68632;47.512;19.104;2024-02-15T03:52:27;42.22;;;25.73;;
79204;SDS011;68632;47.512;19.104;2024-02-15T03:53:31;36.90;;;23.65;;
79204;SDS011;68632;47.512;19.104;2024-02-15T03:54:35;42.42;;;25.90;;
79204;SDS011;68632;47.512;19.104;2024-02-15T03:55:38;38.55;;;21.77;;
79204;SDS011;68632;47.512;19.104;2024-02-15T03:56:47;37.90;;;23.27;;
79204;SDS011;68632;47.512;19.104;2024-02-15T03:57:53;36.15;;;23.52;;
79204;SDS011;68632;47.512;19.104;2024-02-15T03:58:59;38.25;;;22.98;;
79204;SDS011;68632;47.512;19.104;2024-02-15T04:00:01;42.45;;;26.00;;
79204;SDS011;68632;47.512;19.104;2024-02-15T04:01:04;38.17;;;22.38;;
79204;SDS011;68632;47.512;19.104;2024-02-15T04:02:12;39.22;;;23.38;;
79204;SDS011;68632;47.512;19.104;2024-02-15T04:03:16;38.03;;;23.50;;
79204;SDS011;68632;47.512;19.104;2024-02-15T04:04:19;37.15;;;24.35;;
79204;SDS011;68632;47.512;19.104;2024-02-15T04:05:24;38.08;;;24.13;;
79204;SDS011;68632;47.512;19.104;2024-02-15T04:06:26;37.70;;;23.92;;
79204;SDS011;68632;47.512;19.104;2024-02-15T04:07:33;35.30;;;24.75;;
79204;SDS011;68632;47.512;19.104;2024-02-15T04:08:36;39.03;;;24.42;;
79204;SDS011;68632;47.512;19.104;2024-02-15T04:09:41;36.65;;;21.73;;
79204;SDS011;68632;47.512;19.104;2024-02-15T04:10:44;37.95;;;24.05;;
79204;SDS011;68632;47.512;19.104;2024-02-15T04:11:50;40.70;;;24.50;;
79204;SDS011;68632;47.512;19.104;2024-02-15T04:12:55;40.97;;;21.92;;
79204;SDS011;68632;47.512;19.104;2024-02-15T04:14:00;39.13;;;24.58;;
79204;SDS011;68632;47.512;19.104;2024-02-15T04:15:02;35.20;;;23.33;;
79204;SDS011;68632;47.512;19.104;2024-02-15T04:16:15;41.50;;;23.80;;
79204;SDS011;68632;47.512;19.104;2024-02-15T04:17:18;35.35;;;23.40;;
79204;SDS011;68632;47.512;19.104;2024-02-15T04:18:23;35.28;;;22.30;;
79204;SDS011;68632;47.512;19.104;2024-02-15T04:19:26;35.10;;;23.27;;
79204;SDS011;68632;47.512;19.104;2024-02-15T04:20:28;35.25;;;23.00;;
79204;SDS011;68632;47.512;19.104;2024-02-15T04:21:31;39.60;;;23.77;;
79204;SDS011;68632;47.512;19.104;2024-02-15T04:22:33;35.35;;;21.70;;
79204;SDS011;68632;47.512;19.104;2024-02-15T04:23:38;32.42;;;22.48;;
79204;SDS011;68632;47.512;19.104;2024-02-15T04:24:41;31.33;;;19.60;;
79204;SDS011;68632;47.512;19.104;2024-02-15T04:25:44;34.67;;;21.67;;
79204;SDS011;68632;47.512;19.104;2024-02-15T04:26:52;36.70;;;22.10;;
79204;SDS011;68632;47.512;19.104;2024-02-15T04:27:55;36.53;;;23.60;;
79204;SDS011;68632;47.512;19.104;2024-02-15T04:28:59;35.25;;;21.83;;
79204;SDS011;68632;47.512;19.104;2024-02-15T04:30:02;37.17;;;23.55;;
79204;SDS011;68632;47.512;19.104;2024-02-15T04:31:05;32.78;;;21.92;;
79204;SDS011;68632;47.512;19.104;2024-02-15T04:32:10;32.63;;;22.33;;
79204;SDS011;68632;47.512;19.104;2024-02-15T04:33:15;33.67;;;23.13;;
79204;SDS011;68632;47.512;19.104;2024-02-15T04:34:18;35.97;;;23.88;;
79204;SDS011;68632;47.512;19.104;2024-02-15T04:35:21;39.30;;;23.90;;
79204;SDS011;68632;47.512;19.104;2024-02-15T04:36:23;36.58;;;22.85;;
79204;SDS011;68632;47.512;19.104;2024-02-15T04:37:26;37.50;;;23.05;;
79204;SDS011;68632;47.512;19.104;2024-02-15T04:38:30;36.25;;;22.63;;
79204;SDS011;68632;47.512;19.104;2024-02-15T04:39:35;42.30;;;24.17;;
79204;SDS011;68632;47.512;19.104;2024-02-15T04:40:38;35.75;;;23.80;;
79204;SDS011;68632;47.512;19.104;2024-02-15T04:41:41;38.30;;;24.92;;
79204;SDS011;68632;47.512;19.104;2024-02-15T04:42:43;37.90;;;23.77;;
79204;SDS011;68632;47.512;19.104;2024-02-15T04:43:47;42.45;;;27.02;;
79204;SDS011;68632;47.512;19.104;2024-02-15T04:44:49;36.38;;;23.38;;
79204;SDS011;68632;47.512;19.104;2024-02-15T04:45:56;40.10;;;23.92;;
79204;SDS011;68632;47.512;19.104;2024-02-15T04:46:58;37.53;;;24.42;;
79204;SDS011;68632;47.512;19.104;2024-02-15T04:48:01;39.63;;;24.75;;
79204;SDS011;68632;47.512;19.104;2024-02-15T04:49:04;42.08;;;25.08;;
79204;SDS011;68632;47.512;19.104;2024-02-15T04:50:08;38.88;;;25.52;;
79204;SDS011;68632;47.512;19.104;2024-02-15T04:51:11;34.45;;;24.27;;
79204;SDS011;68632;47.512;19.104;2024-02-15T04:52:14;36.53;;;24.20;;
79204;SDS011;68632;47.512;19.104;2024-02-15T04:53:16;39.17;;;25.65;;
79204;SDS011;68632;47.512;19.104;2024-02-15T04:54:18;39.92;;;25.98;;
79204;SDS011;68632;47.512;19.104;2024-02-15T04:55:21;40.17;;;24.67;;
79204;SDS011;68632;47.512;19.104;2024-02-15T04:56:24;41.00;;;23.77;;
79204;SDS011;68632;47.512;19.104;2024-02-15T04:57:27;38.58;;;21.73;;
79204;SDS011;68632;47.512;19.104;2024-02-15T04:58:32;37.13;;;23.98;;
79204;SDS011;68632;47.512;19.104;2024-02-15T04:59:38;40.88;;;24.95;;
79204;SDS011;68632;47.512;19.104;2024-02-15T05:00:40;37.13;;;25.33;;
79204;SDS011;68632;47.512;19.104;2024-02-15T05:01:44;39.00;;;23.00;;
79204;SDS011;68632;47.512;19.104;2024-02-15T05:02:46;38.72;;;24.30;;
79204;SDS011;68632;47.512;19.104;2024-02-15T05:03:48;37.58;;;24.13;;
79204;SDS011;68632;47.512;19.104;2024-02-15T05:04:51;40.05;;;23.80;;
79204;SDS011;68632;47.512;19.104;2024-02-15T05:05:59;35.65;;;23.90;;
79204;SDS011;68632;47.512;19.104;2024-02-15T05:07:01;35.17;;;22.90;;
79204;SDS011;68632;47.512;19.104;2024-02-15T05:08:05;40.20;;;25.17;;
79204;SDS011;68632;47.512;19.104;2024-02-15T05:09:08;35.42;;;23.10;;
79204;SDS011;68632;47.512;19.104;2024-02-15T05:10:12;38.42;;;23.25;;
79204;SDS011;68632;47.512;19.104;2024-02-15T05:11:15;41.15;;;23.70;;
79204;SDS011;68632;47.512;19.104;2024-02-15T05:12:21;40.17;;;23.10;;
79204;SDS011;68632;47.512;19.104;2024-02-15T05:13:27;32.13;;;21.63;;
79204;SDS011;68632;47.512;19.104;2024-02-15T05:14:29;37.58;;;23.15;;
79204;SDS011;68632;47.512;19.104;2024-02-15T05:15:32;34.17;;;23.33;;
79204;SDS011;68632;47.512;19.104;2024-02-15T05:16:34;33.40;;;22.65;;
79204;SDS011;68632;47.512;19.104;2024-02-15T05:17:39;33.67;;;23.38;;
79204;SDS011;68632;47.512;19.104;2024-02-15T05:18:45;35.10;;;22.17;;
79204;SDS011;68632;47.512;19.104;2024-02-15T05:19:48;35.25;;;22.92;;
79204;SDS011;68632;47.512;19.104;2024-02-15T05:20:51;37.65;;;24.02;;
79204;SDS011;68632;47.512;19.104;2024-02-15T05:21:54;36.78;;;24.05;;
79204;SDS011;68632;47.512;19.104;2024-02-15T05:22:57;34.28;;;22.95;;
79204;SDS011;68632;47.512;19.104;2024-02-15T05:24:00;34.75;;;24.45;;
79204;SDS011;68632;47.512;19.104;2024-02-15T05:25:03;38.65;;;24.67;;
79204;SDS011;68632;47.512;19.104;2024-02-15T05:26:08;39.63;;;23.08;;
79204;SDS011;68632;47.512;19.104;2024-02-15T05:27:10;41.72;;;24.75;;
79204;SDS011;68632;47.512;19.104;2024-02-15T05:28:12;40.47;;;23.98;;
79204;SDS011;68632;47.512;19.104;2024-02-15T05:29:14;39.67;;;25.50;;
79204;SDS011;68632;47.512;19.104;2024-02-15T05:30:17;35.60;;;23.10;;
79204;SDS011;68632;47.512;19.104;2024-02-15T05:31:20;39.10;;;23.40;;
79204;SDS011;68632;47.512;19.104;2024-02-15T05:32:23;33.75;;;21.65;;
79204;SDS011;68632;47.512;19.104;2024-02-15T05:33:27;32.42;;;20.80;;
79204;SDS011;68632;47.512;19.104;2024-02-15T05:34:32;37.15;;;22.90;;
79204;SDS011;68632;47.512;19.104;2024-02-15T05:35:34;38.10;;;23.80;;
79204;SDS011;68632;47.512;19.104;2024-02-15T05:36:41;37.25;;;22.33;;
79204;SDS011;68632;47.512;19.104;2024-02-15T05:37:43;40.55;;;22.17;;
79204;SDS011;68632;47.512;19.104;2024-02-15T05:38:47;37.42;;;24.27;;
79204;SDS011;68632;47.512;19.104;2024-02-15T05:39:49;33.70;;;22.05;;
79204;SDS011;68632;47.512;19.104;2024-02-15T05:40:55;32.15;;;22.83;;
79204;SDS011;68632;47.512;19.104;2024-02-15T05:41:58;40.75;;;19.60;;
79204;SDS011;68632;47.512;19.104;2024-02-15T05:43:03;34.53;;;21.38;;
79204;SDS011;68632;47.512;19.104;2024-02-15T05:44:05;34.63;;;23.95;;
79204;SDS011;68632;47.512;19.104;2024-02-15T05:46:26;32.03;;;20.02;;
79204;SDS011;68632;47.512;19.104;2024-02-15T05:47:30;31.63;;;22.30;;
79204;SDS011;68632;47.512;19.104;2024-02-15T05:48:32;31.52;;;22.20;;
79204;SDS011;68632;47.512;19.104;2024-02-15T05:49:38;34.65;;;22.00;;
79204;SDS011;68632;47.512;19.104;2024-02-15T05:50:41;37.58;;;23.70;;
79204;SDS011;68632;47.512;19.104;2024-02-15T05:51:43;40.50;;;24.70;;
79204;SDS011;68632;47.512;19.104;2024-02-15T05:52:47;37.60;;;22.92;;
79204;SDS011;68632;47.512;19.104;2024-02-15T05:53:49;36.10;;;23.33;;
79204;SDS011;68632;47.512;19.104;2024-02-15T05:54:52;38.50;;;21.77;;
79204;SDS011;68632;47.512;19.104;2024-02-15T05:55:54;33.05;;;21.77;;
79204;SDS011;68632;47.512;19.104;2024-02-15T05:57:00;34.25;;;22.10;;
79204;SDS011;68632;47.512;19.104;2024-02-15T05:58:06;35.35;;;23.70;;
79204;SDS011;68632;47.512;19.104;2024-02-15T05:59:11;37.58;;;22.45;;
79204;SDS011;68632;47.512;19.104;2024-02-15T06:00:14;37.55;;;24.38;;
79204;SDS011;68632;47.512;19.104;2024-02-15T06:01:24;35.20;;;21.55;;
79204;SDS011;68632;47.512;19.104;2024-02-15T06:02:26;37.50;;;23.38;;
79204;SDS011;68632;47.512;19.104;2024-02-15T06:03:29;34.72;;;22.35;;
79204;SDS011;68632;47.512;19.104;2024-02-15T06:04:31;38.55;;;24.30;;
79204;SDS011;68632;47.512;19.104;2024-02-15T06:05:33;39.30;;;24.92;;